Barrington Passage, Canada
Current Conditions -  °F | °C
As of 8:00 PM on Monday 20 Oct 2014 (Local Time) from CYQI Reporting Station
Broken Clouds Broken Clouds  
Wind Chill: 40°   Ceiling: 25000
Heat Index: 46°   Visibility: 15mi
Dew Point: 39°   Wind: 14mph
Humidity: 76%   Direction: 260°W
Pressure: 29.97"   Gusts: NA
Location:  43.52°N, 65.6°W
Report Text: CYQI 202300Z 26012KT 15SM SCT020 BKN250 08/04 A2997 RMK SC4CI1 SLP150
Loading
Personal Weather Stations






























Interactive Weather Map
Tropical Storm Tracking
New forecast layout! Learn more

10-Day Weather Forecast

Advertisements
Track Severe Weather on mobile